Time;durP1;ratioP1;P1;durP2;ratioP2;P2;SDS_P1;SDS_P2;PMS_P1;PMS_P2;Temp;Humidity;BMP_temperature;BMP_pressure;BME280_temperature;BME280_humidity;BME280_pressure;Samples;Min_cycle;Max_cycle;Signal;HPM_P1;HPM_P2
2022/05/07 00:01:05;;;;;;;;;4.50;4.50;;;;;17.28;43.52;101843.50;5038677;28;69568;-54
2022/05/07 00:03:30;;;;;;;;;6.25;4.00;;;;;17.21;43.13;101842.91;5037413;28;45786;-54
2022/05/07 00:05:56;;;;;;;;;6.00;5.50;;;;;17.18;43.10;101842.16;5039627;28;45301;-52
2022/05/07 00:08:21;;;;;;;;;7.25;5.75;;;;;17.15;43.98;101831.66;5039505;28;45439;-53
2022/05/07 00:10:47;;;;;;;;;7.25;7.25;;;;;17.12;43.66;101839.72;5039272;28;69352;-53
2022/05/07 00:13:13;;;;;;;;;8.00;7.00;;;;;17.06;43.55;101832.88;5031513;28;45319;-53
2022/05/07 00:15:38;;;;;;;;;11.00;6.75;;;;;16.98;44.44;101830.50;5040893;28;45392;-53
2022/05/07 00:18:06;;;;;;;;;11.00;8.25;;;;;16.96;44.94;101831.47;5031301;28;58982;-53
2022/05/07 00:20:32;;;;;;;;;12.25;6.75;;;;;16.94;44.10;101826.22;5040950;28;46264;-54
2022/05/07 00:22:58;;;;;;;;;6.00;6.00;;;;;16.91;44.89;101828.13;5034306;28;45482;-53
2022/05/07 00:25:24;;;;;;;;;11.75;8.00;;;;;16.88;45.16;101832.63;5041178;28;45283;-53
2022/05/07 00:27:49;;;;;;;;;11.00;9.00;;;;;16.88;45.08;101823.81;5034108;28;45373;-53
2022/05/07 00:30:15;;;;;;;;;7.00;7.00;;;;;16.87;45.13;101828.25;5040439;28;62102;-53
2022/05/07 00:32:40;;;;;;;;;8.50;7.25;;;;;16.86;44.92;101825.66;5033214;28;69689;-54
2022/05/07 00:35:06;;;;;;;;;11.00;9.25;;;;;16.83;45.51;101823.09;5040968;28;45396;-53
2022/05/07 00:37:31;;;;;;;;;8.50;8.50;;;;;16.82;45.82;101816.94;5033830;28;45562;-52
2022/05/07 00:39:57;;;;;;;;;8.00;8.00;;;;;16.82;45.48;101826.66;5040821;28;45935;-51
2022/05/07 00:42:22;;;;;;;;;9.00;8.00;;;;;16.80;45.53;101824.09;5033811;28;45393;-52
2022/05/07 00:44:47;;;;;;;;;12.50;9.00;;;;;16.78;45.60;101822.41;5040250;28;56804;-51
2022/05/07 00:47:24;;;;;;;;;11.50;9.00;;;;;16.73;45.58;101822.53;5032943;28;66504;-52
2022/05/07 00:49:54;;;;;;;;;9.25;8.00;;;;;16.70;45.58;101820.03;5040207;28;46189;-53
2022/05/07 00:52:20;;;;;;;;;15.25;10.00;;;;;16.68;45.37;101822.72;5034237;28;45324;-52
2022/05/07 00:54:46;;;;;;;;;8.00;7.50;;;;;16.65;46.46;101816.69;5037343;28;45350;-51
2022/05/07 00:57:15;;;;;;;;;9.25;9.25;;;;;16.61;46.71;101818.56;5036296;28;45593;-53
2022/05/07 00:59:40;;;;;;;;;12.00;10.75;;;;;16.56;47.50;101814.38;5038168;28;46152;-54
2022/05/07 01:02:05;;;;;;;;;8.50;7.25;;;;;16.53;46.77;101815.31;5033005;28;45331;-51
2022/05/07 01:04:31;;;;;;;;;10.00;8.25;;;;;16.51;46.86;101820.66;5034517;28;45278;-53
2022/05/07 01:06:56;;;;;;;;;11.50;10.00;;;;;16.48;46.18;101815.50;5035612;28;50999;-52
2022/05/07 01:09:22;;;;;;;;;9.25;8.00;;;;;16.44;47.27;101813.00;5038178;28;65695;-51
2022/05/07 01:11:47;;;;;;;;;11.75;9.75;;;;;16.41;46.68;101808.66;5036427;28;62991;-53
2022/05/07 01:14:12;;;;;;;;;11.75;10.25;;;;;16.38;46.85;101815.84;5033848;28;45699;-54
2022/05/07 01:16:38;;;;;;;;;14.75;10.00;;;;;16.29;47.36;101811.75;5022044;28;66808;-54
2022/05/07 01:19:03;;;;;;;;;11.50;8.75;;;;;16.23;46.60;101815.44;5039012;28;59090;-53
2022/05/07 01:21:29;;;;;;;;;8.75;7.25;;;;;16.19;47.04;101815.63;5037066;28;45320;-53
2022/05/07 01:23:54;;;;;;;;;10.25;8.25;;;;;16.14;47.37;101808.69;5034661;28;45337;-51
2022/05/07 01:26:23;;;;;;;;;12.75;10.50;;;;;16.10;47.47;101812.34;5035657;28;67605;-53
2022/05/07 01:28:49;;;;;;;;;16.50;10.00;;;;;16.07;46.99;101812.44;5038530;28;47120;-52
2022/05/07 01:31:14;;;;;;;;;11.75;8.00;;;;;16.02;47.15;101814.38;5036897;28;45232;-54
2022/05/07 01:33:40;;;;;;;;;10.50;10.00;;;;;16.00;47.22;101813.56;5036286;28;47569;-53
2022/05/07 01:36:11;;;;;;;;;14.00;9.00;;;;;15.97;47.94;101812.78;5037892;28;45161;-54
2022/05/07 01:38:37;;;;;;;;;9.75;8.75;;;;;15.93;47.35;101806.75;5035464;28;46168;-53
2022/05/07 01:41:03;;;;;;;;;10.25;9.50;;;;;15.92;47.71;101810.31;5037630;28;47189;-54
2022/05/07 01:43:29;;;;;;;;;13.25;10.00;;;;;15.88;47.42;101800.75;5035399;28;46279;-53
2022/05/07 01:45:55;;;;;;;;;11.00;10.25;;;;;15.85;48.12;101814.06;5037914;28;45278;-52
2022/05/07 01:48:21;;;;;;;;;12.00;9.00;;;;;15.79;47.38;101806.34;5034182;28;47028;-52
2022/05/07 01:50:46;;;;;;;;;10.50;9.50;;;;;15.76;47.84;101809.94;5038604;28;45783;-53
2022/05/07 01:53:12;;;;;;;;;11.50;8.75;;;;;15.74;48.55;101807.34;5029895;28;63169;-52
2022/05/07 01:55:37;;;;;;;;;11.75;9.25;;;;;15.73;48.24;101807.38;5038457;28;45549;-53
2022/05/07 01:58:03;;;;;;;;;10.75;9.25;;;;;15.71;48.51;101801.28;5031138;28;63712;-54
2022/05/07 02:00:30;;;;;;;;;12.75;9.00;;;;;15.69;48.68;101801.31;5038494;28;45368;-52
2022/05/07 02:02:55;;;;;;;;;15.75;11.00;;;;;15.67;48.17;101800.50;5037679;28;45287;-53
2022/05/07 02:05:21;;;;;;;;;11.00;9.50;;;;;15.64;48.42;101790.03;5045339;28;45493;-52
2022/05/07 02:07:46;;;;;;;;;10.25;9.00;;;;;15.64;48.53;101797.97;5042420;28;45411;-53
2022/05/07 02:10:12;;;;;;;;;15.25;10.50;;;;;15.65;48.97;101802.34;5044437;28;65031;-53
2022/05/07 02:12:37;;;;;;;;;11.00;10.50;;;;;15.64;49.44;101807.66;5036151;28;45690;-51
2022/05/07 02:15:03;;;;;;;;;10.00;7.50;;;;;15.62;48.82;101798.94;5045194;28;45272;-53
2022/05/07 02:17:28;;;;;;;;;13.25;11.75;;;;;15.61;49.59;101803.31;5037146;28;45316;-52
2022/05/07 02:19:54;;;;;;;;;12.75;10.50;;;;;15.57;49.28;101797.28;5044749;28;51905;-53
2022/05/07 02:22:19;;;;;;;;;15.50;11.25;;;;;15.53;49.18;101789.53;5039719;28;45396;-53
2022/05/07 02:24:46;;;;;;;;;13.00;12.00;;;;;15.55;49.34;101795.63;5045025;28;66819;-53
2022/05/07 02:27:11;;;;;;;;;9.00;8.00;;;;;15.53;49.60;101797.44;5039219;28;46180;-51
2022/05/07 02:29:37;;;;;;;;;12.25;12.00;;;;;15.47;48.62;101790.53;5045785;28;45276;-52
2022/05/07 02:32:06;;;;;;;;;14.75;12.50;;;;;15.46;49.81;101795.91;5039412;28;45333;-53
2022/05/07 02:34:35;;;;;;;;;19.00;15.00;;;;;15.44;49.69;101801.22;5045866;28;45447;-54
2022/05/07 02:37:01;;;;;;;;;15.25;12.00;;;;;15.41;49.33;101803.09;5038828;28;46260;-52
2022/05/07 02:39:26;;;;;;;;;14.25;11.50;;;;;15.40;49.64;101796.91;5045928;28;45218;-53
2022/05/07 02:44:36;;;;;;;;;10.75;10.25;;;;;15.36;50.08;101796.16;5045765;28;45238;-52
2022/05/07 02:47:02;;;;;;;;;11.50;10.25;;;;;15.29;50.40;101794.59;5039339;28;46153;-53
2022/05/07 02:49:27;;;;;;;;;16.00;11.00;;;;;15.25;50.31;101792.13;5041504;28;45375;-53
2022/05/07 02:51:52;;;;;;;;;14.25;10.00;;;;;15.27;49.41;101798.22;5040139;28;63209;-51
2022/05/07 02:54:18;;;;;;;;;14.00;11.75;;;;;15.24;50.30;101796.50;5042121;28;69034;-51
2022/05/07 02:56:43;;;;;;;;;15.75;10.25;;;;;15.22;50.26;101802.75;5041069;28;56980;-51
2022/05/07 02:59:09;;;;;;;;;13.25;13.25;;;;;15.18;50.45;101802.84;5044234;28;45422;-52
2022/05/07 03:01:34;;;;;;;;;10.25;10.25;;;;;15.16;50.91;101795.91;5042983;28;45427;-51
2022/05/07 03:03:59;;;;;;;;;15.00;14.00;;;;;15.17;51.13;101790.59;5045036;28;45351;-53
2022/05/07 03:06:25;;;;;;;;;14.25;12.25;;;;;15.15;50.55;101792.38;5042640;28;66466;-50
2022/05/07 03:08:50;;;;;;;;;17.00;11.75;;;;;15.11;50.57;101781.97;5035865;28;67705;-52
2022/05/07 03:11:15;;;;;;;;;16.50;12.75;;;;;15.08;50.81;101793.47;5043168;28;45332;-52
2022/05/07 03:13:41;;;;;;;;;12.75;12.00;;;;;15.07;51.13;101798.78;5041406;28;66447;-53
2022/05/07 03:16:06;;;;;;;;;12.50;10.75;;;;;15.04;51.83;101793.63;5040194;28;46978;-53
2022/05/07 03:18:32;;;;;;;;;15.75;13.25;;;;;15.00;51.49;101787.56;5037369;28;45438;-52
2022/05/07 03:20:58;;;;;;;;;14.75;11.25;;;;;14.98;52.03;101792.88;5039088;28;45308;-53
2022/05/07 03:23:25;;;;;;;;;16.25;13.00;;;;;14.97;51.53;101793.78;5034589;28;45480;-54
2022/05/07 03:25:50;;;;;;;;;18.75;13.25;;;;;14.97;52.14;101790.28;5040166;28;45190;-52
2022/05/07 03:28:16;;;;;;;;;11.75;11.75;;;;;14.96;51.49;101792.06;5036649;28;45483;-53
2022/05/07 03:30:41;;;;;;;;;10.50;10.00;;;;;14.94;52.13;101788.59;5040489;28;56231;-51
2022/05/07 03:33:07;;;;;;;;;14.75;12.25;;;;;14.94;51.12;101796.53;5036016;28;45383;-52
2022/05/07 03:35:33;;;;;;;;;14.75;11.75;;;;;14.93;51.57;101791.28;5041513;28;46078;-50
2022/05/07 03:37:58;;;;;;;;;15.25;12.00;;;;;14.91;51.23;101787.81;5033950;28;65146;-52
2022/05/07 03:40:23;;;;;;;;;15.25;12.25;;;;;14.91;51.13;101793.06;5040764;28;63974;-52
2022/05/07 03:42:49;;;;;;;;;16.00;14.00;;;;;14.90;52.13;101789.59;5034102;28;65606;-51
2022/05/07 03:45:14;;;;;;;;;15.75;11.50;;;;;14.89;51.61;101793.16;5040559;28;67761;-53
2022/05/07 03:47:39;;;;;;;;;13.00;10.75;;;;;14.85;52.65;101780.09;5034700;28;45267;-53
2022/05/07 03:50:05;;;;;;;;;14.75;11.00;;;;;14.83;51.92;101788.03;5040872;28;58759;-52
2022/05/07 03:55:16;;;;;;;;;14.50;11.75;;;;;14.77;52.03;101782.94;5038246;28;45384;-50
2022/05/07 03:57:41;;;;;;;;;14.50;12.25;;;;;14.71;52.27;101781.31;5036228;28;45876;-53
2022/05/07 04:00:07;;;;;;;;;17.25;14.00;;;;;14.71;52.20;101781.31;5039246;28;65595;-50
2022/05/07 04:02:35;;;;;;;;;13.75;12.50;;;;;14.70;52.65;101771.69;5037807;28;45425;-53
2022/05/07 04:05:01;;;;;;;;;16.50;12.00;;;;;14.69;52.29;101780.50;5039437;28;47333;-52
2022/05/07 04:07:27;;;;;;;;;22.00;15.25;;;;;14.69;52.73;101779.66;5034233;28;45789;-52
2022/05/07 04:09:54;;;;;;;;;14.75;12.50;;;;;14.66;52.44;101782.34;5037460;28;64575;-51
2022/05/07 04:12:20;;;;;;;;;15.75;12.75;;;;;14.65;53.45;101785.91;5033512;28;45416;-51
2022/05/07 04:14:45;;;;;;;;;13.75;12.75;;;;;14.64;53.42;101777.13;5038110;28;46104;-52
2022/05/07 04:17:11;;;;;;;;;13.50;10.75;;;;;14.63;52.99;101775.41;5034647;28;45633;-51
2022/05/07 04:19:36;;;;;;;;;13.75;12.00;;;;;14.63;53.52;101775.41;5037533;28;52053;-50
2022/05/07 04:22:02;;;;;;;;;16.25;13.00;;;;;14.66;53.33;101779.72;5034298;28;66156;-53
2022/05/07 04:24:28;;;;;;;;;17.00;12.00;;;;;14.66;52.26;101772.69;5040727;28;45354;-52
2022/05/07 04:26:53;;;;;;;;;15.50;15.25;;;;;14.64;53.59;101774.50;5033973;28;45281;-51
2022/05/07 04:29:19;;;;;;;;;17.00;10.75;;;;;14.63;52.76;101774.56;5040816;28;45279;-51
2022/05/07 04:31:44;;;;;;;;;17.75;13.50;;;;;14.59;53.89;101785.16;5034429;28;45263;-50
2022/05/07 04:34:10;;;;;;;;;20.25;12.25;;;;;14.59;52.83;101776.41;5040532;28;46878;-52
2022/05/07 04:36:35;;;;;;;;;14.00;14.00;;;;;14.58;52.94;101779.94;5034796;28;45269;-52
2022/05/07 04:39:01;;;;;;;;;18.00;14.50;;;;;14.57;52.83;101781.69;5039954;28;45722;-52
2022/05/07 04:41:26;;;;;;;;;16.75;16.00;;;;;14.56;53.39;101784.34;5036370;28;45151;-52
2022/05/07 04:43:51;;;;;;;;;15.50;14.00;;;;;14.52;53.43;101777.41;5037953;28;59558;-52
2022/05/07 04:46:17;;;;;;;;;22.50;16.00;;;;;14.52;53.83;101774.78;5037584;28;45411;-52
2022/05/07 04:48:43;;;;;;;;;14.25;12.75;;;;;14.47;54.47;101774.06;5037323;28;45449;-51
2022/05/07 04:51:08;;;;;;;;;16.25;12.75;;;;;14.47;53.80;101789.88;5038582;28;45642;-50
2022/05/07 04:53:34;;;;;;;;;11.75;10.50;;;;;14.46;54.16;101782.88;5033346;28;46147;-49
2022/05/07 04:55:59;;;;;;;;;11.75;10.00;;;;;14.44;53.44;101789.03;5038316;28;45490;-50
2022/05/07 04:58:25;;;;;;;;;21.75;17.00;;;;;14.44;54.29;101782.91;5035649;28;45514;-52
2022/05/07 05:00:52;;;;;;;;;20.50;17.00;;;;;14.43;54.42;101779.41;5038138;28;65627;-52
2022/05/07 05:03:17;;;;;;;;;19.25;16.50;;;;;14.40;54.31;101773.38;5037956;28;46171;-52
2022/05/07 05:05:44;;;;;;;;;23.00;16.75;;;;;14.39;54.73;101771.63;5039400;28;46153;-51
2022/05/07 05:08:09;;;;;;;;;18.25;16.00;;;;;14.37;54.95;101778.69;5030189;28;45393;-52
2022/05/07 05:10:35;;;;;;;;;22.50;19.00;;;;;14.39;54.40;101785.63;5040149;28;45242;-51
2022/05/07 05:13:00;;;;;;;;;27.75;18.25;;;;;14.41;54.72;101788.25;5030572;28;46246;-51
2022/05/07 05:15:26;;;;;;;;;26.00;17.50;;;;;14.40;54.21;101781.25;5038797;28;49543;-51
2022/05/07 05:17:51;;;;;;;;;23.25;17.00;;;;;14.39;54.55;101774.25;5034274;28;45225;-51
2022/05/07 05:20:17;;;;;;;;;26.50;17.50;;;;;14.39;55.08;101780.38;5040078;28;45256;-53
2022/05/07 05:22:48;;;;;;;;;18.00;16.00;;;;;14.38;55.66;101777.81;5030608;28;68534;-49
2022/05/07 05:25:15;;;;;;;;;22.50;17.75;;;;;14.38;55.51;101785.72;5030598;28;45283;-53
2022/05/07 05:27:41;;;;;;;;;21.25;18.75;;;;;14.38;55.67;101777.81;5033432;28;45180;-52
2022/05/07 05:30:07;;;;;;;;;24.75;18.75;;;;;14.38;55.48;101768.13;5039806;28;47803;-50
2022/05/07 05:32:32;;;;;;;;;21.50;18.50;;;;;14.38;55.11;101769.91;5037551;28;47075;-51
2022/05/07 05:34:57;;;;;;;;;28.50;21.00;;;;;14.37;55.33;101776.06;5040027;28;45466;-51
2022/05/07 05:37:23;;;;;;;;;17.75;12.75;;;;;14.34;55.69;101771.75;5030318;28;62780;-53
2022/05/07 05:39:48;;;;;;;;;20.25;16.25;;;;;14.37;54.83;101774.28;5037767;28;65964;-52
2022/05/07 05:42:14;;;;;;;;;24.75;16.75;;;;;14.39;54.90;101776.88;5032603;28;55108;-53
2022/05/07 05:44:39;;;;;;;;;26.00;20.25;;;;;14.39;54.69;101780.38;5039656;28;45442;-50
2022/05/07 05:47:08;;;;;;;;;19.25;16.75;;;;;14.40;55.26;101784.75;5033196;28;45397;-53
2022/05/07 05:49:33;;;;;;;;;21.00;16.50;;;;;14.42;55.34;101787.34;5039712;28;45291;-53
2022/05/07 05:52:03;;;;;;;;;20.75;17.50;;;;;14.44;55.60;101782.91;5032766;28;64696;-51
2022/05/07 05:54:29;;;;;;;;;20.50;18.50;;;;;14.50;55.80;101790.66;5035865;28;45363;-52
2022/05/07 05:56:55;;;;;;;;;24.00;19.00;;;;;14.51;55.54;101776.56;5035039;28;45292;-53
2022/05/07 05:59:20;;;;;;;;;24.50;19.50;;;;;14.55;55.40;101790.50;5037192;28;45376;-54
2022/05/07 06:01:46;;;;;;;;;26.75;19.75;;;;;14.56;55.50;101790.47;5034922;28;71653;-53
2022/05/07 06:04:11;;;;;;;;;25.50;19.25;;;;;14.56;55.30;101785.22;5038062;28;45375;-52
2022/05/07 06:06:37;;;;;;;;;25.25;18.25;;;;;14.57;55.81;101791.34;5036991;28;45977;-53
2022/05/07 06:09:02;;;;;;;;;25.75;20.00;;;;;14.61;55.58;101785.13;5038138;28;64577;-53
2022/05/07 06:11:28;;;;;;;;;23.50;18.00;;;;;14.66;55.53;101775.34;5036822;28;47016;-51
2022/05/07 06:13:53;;;;;;;;;27.25;18.25;;;;;14.71;55.30;101777.81;5031008;28;45378;-53
2022/05/07 06:16:19;;;;;;;;;26.25;16.25;;;;;14.74;55.64;101777.75;5037284;28;61047;-53
2022/05/07 06:18:44;;;;;;;;;25.00;18.00;;;;;14.78;55.86;101780.28;5031809;28;45242;-53
2022/05/07 06:21:10;;;;;;;;;22.00;16.00;;;;;14.77;55.70;101781.16;5036840;28;68685;-52
2022/05/07 06:23:35;;;;;;;;;27.25;21.25;;;;;14.79;55.87;101789.03;5034021;28;59655;-51
2022/05/07 06:28:44;;;;;;;;;24.25;18.50;;;;;14.84;54.96;101788.88;5036176;28;45380;-53
2022/05/07 06:31:10;;;;;;;;;27.75;20.50;;;;;14.86;55.75;101802.91;5036743;28;45301;-53
2022/05/07 06:33:38;;;;;;;;;25.75;19.00;;;;;14.89;55.90;101805.44;5034894;28;45424;-54
2022/05/07 06:36:05;;;;;;;;;24.25;18.75;;;;;14.87;55.10;101807.25;5036808;28;45486;-51
2022/05/07 06:38:30;;;;;;;;;28.00;20.25;;;;;14.90;55.31;101820.34;5033914;28;45437;-52
2022/05/07 06:40:56;;;;;;;;;28.50;20.75;;;;;14.92;55.28;101822.03;5035961;28;70559;-51
2022/05/07 06:43:22;;;;;;;;;22.75;17.50;;;;;14.93;55.65;101822.91;5034706;28;45884;-51
2022/05/07 06:45:48;;;;;;;;;28.75;20.25;;;;;14.95;55.24;101815.81;5037781;28;45289;-51
2022/05/07 06:48:13;;;;;;;;;24.00;19.50;;;;;15.02;55.77;101820.00;5033527;28;45467;-52
2022/05/07 06:50:39;;;;;;;;;23.25;17.50;;;;;15.03;55.30;101831.41;5040525;28;63256;-49
2022/05/07 06:53:04;;;;;;;;;27.25;23.50;;;;;15.04;55.63;101830.53;5034616;28;45422;-53
2022/05/07 06:55:33;;;;;;;;;24.00;19.00;;;;;15.02;55.24;101834.97;5040989;28;60202;-50
2022/05/07 06:58:01;;;;;;;;;35.75;24.75;;;;;15.04;55.24;101833.16;5036180;28;45364;-50
2022/05/07 07:00:26;;;;;;;;;31.75;21.75;;;;;15.02;55.03;101830.56;5041958;28;45399;-53
2022/05/07 07:02:52;;;;;;;;;29.00;18.25;;;;;15.05;55.51;101833.13;5034558;28;45622;-52
2022/05/07 07:05:17;;;;;;;;;23.25;19.25;;;;;15.06;55.45;101834.81;5041485;28;61854;-53
2022/05/07 07:07:43;;;;;;;;;19.75;18.00;;;;;15.08;54.66;101832.16;5030824;28;64714;-53
2022/05/07 07:10:09;;;;;;;;;23.75;19.00;;;;;15.10;55.52;101832.97;5041868;28;47149;-52
2022/05/07 07:12:38;;;;;;;;;29.50;21.75;;;;;15.11;55.16;101830.28;5032582;28;45304;-53
2022/05/07 07:15:05;;;;;;;;;29.75;21.50;;;;;15.20;55.61;101837.09;5028006;28;45382;-53
2022/05/07 07:17:32;;;;;;;;;24.00;20.00;;;;;15.24;55.19;101832.59;5035746;28;45516;-52
2022/05/07 07:19:57;;;;;;;;;23.50;19.50;;;;;15.28;54.95;101840.38;5041723;28;46301;-53
2022/05/07 07:22:23;;;;;;;;;23.25;19.75;;;;;15.33;55.69;101833.19;5031956;28;67390;-52
2022/05/07 07:24:48;;;;;;;;;26.25;22.75;;;;;15.41;54.63;101829.47;5042001;28;45272;-51
2022/05/07 07:27:13;;;;;;;;;24.75;18.00;;;;;15.45;55.12;101826.66;5034789;28;58832;-53
2022/05/07 07:29:39;;;;;;;;;20.25;17.75;;;;;15.50;55.05;101822.13;5040174;28;51085;-51
2022/05/07 07:32:05;;;;;;;;;22.75;21.00;;;;;15.56;55.28;101828.97;5035370;28;45211;-53
2022/05/07 07:34:30;;;;;;;;;23.75;19.75;;;;;15.62;54.74;101822.69;5041766;28;45332;-53
2022/05/07 07:36:56;;;;;;;;;20.50;16.50;;;;;15.66;54.37;101834.84;5034908;28;45459;-52
2022/05/07 07:39:21;;;;;;;;;23.50;17.50;;;;;15.68;54.93;101827.75;5040628;28;64723;-53
2022/05/07 07:41:46;;;;;;;;;20.75;17.00;;;;;15.73;54.07;101839.88;5034855;28;45332;-54
2022/05/07 07:44:12;;;;;;;;;22.75;22.00;;;;;15.74;54.35;101831.09;5041606;28;45788;-54
2022/05/07 07:49:22;;;;;;;;;21.50;18.00;;;;;15.75;54.46;101830.19;5034720;28;45437;-50
2022/05/07 07:51:48;;;;;;;;;19.25;17.50;;;;;15.78;53.99;101831.03;5035432;28;45351;-49
2022/05/07 07:54:16;;;;;;;;;21.25;17.25;;;;;15.78;54.33;101826.59;5038019;28;45370;-53
2022/05/07 07:56:45;;;;;;;;;22.50;17.00;;;;;15.82;54.84;101838.78;5035333;28;45486;-51
2022/05/07 07:59:11;;;;;;;;;23.25;17.25;;;;;15.85;54.23;101828.13;5038557;28;46334;-52
2022/05/07 08:01:36;;;;;;;;;25.75;20.00;;;;;15.89;53.99;101828.88;5037117;28;45344;-53
2022/05/07 08:04:01;;;;;;;;;19.75;18.00;;;;;15.91;54.54;101824.44;5038801;28;64834;-53
2022/05/07 08:06:28;;;;;;;;;21.50;14.50;;;;;15.97;54.19;101826.00;5037530;28;67725;-53
2022/05/07 08:11:41;;;;;;;;;23.25;16.50;;;;;16.05;54.52;101816.06;5037128;28;45338;-52
2022/05/07 08:14:07;;;;;;;;;17.00;15.00;;;;;16.11;54.37;101824.66;5033366;28;45351;-53
2022/05/07 08:16:33;;;;;;;;;19.25;16.75;;;;;16.20;54.52;101820.84;5036007;28;45236;-53
2022/05/07 08:18:59;;;;;;;;;20.25;17.00;;;;;16.29;53.99;101819.69;5039535;28;46206;-52
2022/05/07 08:21:24;;;;;;;;;21.25;16.75;;;;;16.32;53.87;101819.56;5037453;28;45288;-53
2022/05/07 08:23:49;;;;;;;;;17.00;14.75;;;;;16.38;53.48;101822.00;5035067;28;50680;-53
2022/05/07 08:26:15;;;;;;;;;20.50;16.00;;;;;16.46;53.53;101825.22;5038064;28;45418;-53
2022/05/07 08:28:41;;;;;;;;;19.00;15.50;;;;;16.54;53.25;101819.69;5027911;28;45310;-53
2022/05/07 08:31:06;;;;;;;;;20.00;13.50;;;;;16.62;53.60;101820.28;5035965;28;45252;-53
2022/05/07 08:33:32;;;;;;;;;21.25;15.75;;;;;16.72;53.09;101820.84;5039548;28;45886;-52
2022/05/07 08:35:58;;;;;;;;;22.25;16.00;;;;;16.79;53.20;101810.91;5038753;28;45431;-53
2022/05/07 08:38:24;;;;;;;;;24.50;18.00;;;;;16.88;53.23;101822.03;5038970;28;46421;-53
2022/05/07 08:40:50;;;;;;;;;15.75;14.00;;;;;16.99;53.13;101819.00;5039286;28;45324;-51
2022/05/07 08:43:16;;;;;;;;;20.25;17.00;;;;;17.12;52.55;101823.84;5035772;28;45454;-52
2022/05/07 08:45:42;;;;;;;;;16.25;15.50;;;;;17.23;52.57;101821.69;5039697;28;45426;-53
2022/05/07 08:48:10;;;;;;;;;15.00;14.00;;;;;17.32;52.29;101818.69;5032018;28;46489;-54
2022/05/07 08:50:36;;;;;;;;;19.75;15.00;;;;;17.47;51.87;101819.88;5039793;28;45170;-52
2022/05/07 08:53:02;;;;;;;;;17.00;15.50;;;;;17.65;51.66;101826.22;5014406;28;45326;-52
2022/05/07 08:55:27;;;;;;;;;55.25;43.75;;;;;17.78;51.75;101826.63;5039515;28;45476;-51
2022/05/07 08:57:53;;;;;;;;;37.50;32.50;;;;;17.91;51.10;101819.06;5034911;28;46193;-53
2022/05/07 09:00:20;;;;;;;;;17.50;15.50;;;;;17.99;51.17;101817.84;5038919;28;45386;-51
2022/05/07 09:02:48;;;;;;;;;21.75;19.25;;;;;18.06;51.18;101820.22;5037190;28;45468;-52
2022/05/07 09:05:15;;;;;;;;;13.75;11.00;;;;;18.14;50.86;101826.94;5038093;28;45632;-52
2022/05/07 09:07:51;;;;;;;;;17.50;15.25;;;;;18.21;50.78;101823.09;5037745;28;46227;-52
2022/05/07 09:10:16;;;;;;;;;22.00;15.75;;;;;18.28;50.74;101831.66;5030535;28;45832;-51
2022/05/07 09:12:41;;;;;;;;;21.75;16.00;;;;;18.36;50.44;101828.69;5029158;28;45383;-52
2022/05/07 09:15:08;;;;;;;;;19.25;15.50;;;;;18.46;50.43;101831.81;5040185;28;45268;-53
2022/05/07 09:17:33;;;;;;;;;24.00;21.25;;;;;18.60;49.98;101817.03;5033582;28;45403;-52
2022/05/07 09:20:09;;;;;;;;;17.50;14.50;;;;;18.74;50.06;101820.88;5039932;28;45498;-52
2022/05/07 09:22:35;;;;;;;;;16.50;15.50;;;;;18.84;49.77;101816.06;5031291;28;45577;-51
2022/05/07 09:25:00;;;;;;;;;17.50;15.00;;;;;18.97;49.67;101817.25;5002045;28;56419;-50
2022/05/07 09:27:25;;;;;;;;;21.50;14.75;;;;;19.14;49.62;101808.50;5028149;28;58975;-53
2022/05/07 09:30:02;;;;;;;;;20.50;16.00;;;;;19.73;49.22;101806.63;5039339;28;64594;-53
2022/05/07 09:32:35;;;;;;;;;18.25;13.50;;;;;20.49;48.00;101801.09;5033442;28;45380;-52
2022/05/07 09:37:44;;;;;;;;;17.50;12.75;;;;;21.74;45.73;101808.59;5032076;28;45450;-51
2022/05/07 09:40:11;;;;;;;;;17.50;12.75;;;;;21.84;45.44;101805.41;5039768;28;45365;-51
2022/05/07 09:42:37;;;;;;;;;17.00;12.75;;;;;22.26;45.24;101809.19;5033292;28;45502;-52
2022/05/07 09:45:03;;;;;;;;;25.25;20.25;;;;;22.61;43.32;101809.75;5039871;28;45293;-52
2022/05/07 09:47:29;;;;;;;;;18.50;15.50;;;;;22.97;42.96;101800.44;5032922;28;46088;-53
2022/05/07 09:57:30;;;;;;;;;14.75;14.00;;;;;24.32;41.87;101801.50;5013559;28;45426;-52
2022/05/07 09:58:09;;;;;;;;;15.50;13.00;;;;;26.63;39.00;101795.47;5029963;28;45487;-53
2022/05/07 10:00:35;;;;;;;;;13.75;11.75;;;;;27.20;37.51;101799.00;5038872;28;67033;-50
2022/05/07 10:03:11;;;;;;;;;14.50;11.50;;;;;27.39;36.56;101795.72;5032945;28;45392;-53
2022/05/07 10:05:44;;;;;;;;;17.25;13.00;;;;;27.77;36.00;101786.31;5022891;28;45289;-50
2022/05/07 10:08:25;;;;;;;;;11.25;9.75;;;;;28.68;35.27;101786.69;5029004;28;46361;-50
2022/05/07 10:10:50;;;;;;;;;12.75;12.00;;;;;28.76;34.66;101788.72;5036779;28;46008;-51
2022/05/07 10:13:17;;;;;;;;;12.25;10.00;;;;;28.36;35.46;101790.31;5009228;28;45391;-53
2022/05/07 10:15:44;;;;;;;;;13.25;12.00;;;;;27.56;36.28;101788.94;5029669;28;45378;-53
2022/05/07 10:18:14;;;;;;;;;14.00;13.00;;;;;26.75;35.90;101795.47;5021103;28;45376;-53
2022/05/07 10:20:45;;;;;;;;;16.00;13.50;;;;;26.08;37.67;101797.88;5038846;28;45316;-53
2022/05/07 10:23:13;;;;;;;;;11.00;8.50;;;;;25.61;37.04;101790.69;5031119;28;45250;-52
2022/05/07 10:25:40;;;;;;;;;17.25;10.75;;;;;25.49;37.67;101789.75;5042513;28;45558;-53
2022/05/07 10:28:14;;;;;;;;;13.75;11.25;;;;;25.31;37.49;101794.66;5036740;28;45438;-53
2022/05/07 10:30:50;;;;;;;;;15.25;13.25;;;;;24.95;37.32;101790.94;5042331;28;45269;-53
2022/05/07 10:33:17;;;;;;;;;12.00;12.00;;;;;24.70;38.30;101797.16;5037020;28;45567;-50
2022/05/07 10:35:47;;;;;;;;;12.00;12.00;;;;;24.37;38.94;101795.84;5041882;28;45388;-53
2022/05/07 10:38:14;;;;;;;;;14.50;12.00;;;;;24.10;38.70;101793.22;5036880;28;46172;-52
2022/05/07 10:41:09;;;;;;;;;15.75;12.25;;;;;23.97;39.21;101788.69;5042230;28;45707;-53
2022/05/07 10:43:42;;;;;;;;;18.00;12.50;;;;;23.85;39.21;101790.38;5041125;28;45297;-50
2022/05/07 10:46:11;;;;;;;;;12.00;9.75;;;;;23.64;39.28;101794.44;5022196;28;45540;-53
2022/05/07 10:48:56;;;;;;;;;15.25;15.00;;;;;23.49;40.07;101782.91;5038053;28;46333;-51
2022/05/07 10:51:30;;;;;;;;;17.25;15.00;;;;;23.43;39.72;101794.88;5038760;28;45312;-51
2022/05/07 10:54:05;;;;;;;;;13.75;11.25;;;;;23.34;39.92;101786.56;5041828;28;45427;-53
2022/05/07 10:56:32;;;;;;;;;12.25;10.75;;;;;23.21;40.15;101782.00;5037435;28;45469;-52
2022/05/07 10:58:57;;;;;;;;;11.75;10.50;;;;;23.01;39.70;101787.75;5038453;28;46276;-51
2022/05/07 11:01:24;;;;;;;;;14.50;13.25;;;;;22.84;40.48;101783.44;5037988;28;69824;-53
2022/05/07 11:04:04;;;;;;;;;12.75;11.25;;;;;22.62;40.77;101779.44;5045677;28;45318;-53
2022/05/07 11:06:33;;;;;;;;;15.00;13.25;;;;;22.47;41.09;101783.03;5037969;28;45372;-53
2022/05/07 11:08:58;;;;;;;;;12.00;10.00;;;;;22.36;40.95;101779.22;5041326;28;46062;-53
2022/05/07 11:11:24;;;;;;;;;11.00;9.75;;;;;22.27;41.38;101779.75;5039766;28;45383;-53
2022/05/07 11:13:50;;;;;;;;;23.50;15.00;;;;;22.24;41.12;101777.25;5033506;28;45483;-49
2022/05/07 11:16:19;;;;;;;;;15.50;9.00;;;;;22.17;41.28;101774.09;5040060;28;45371;-50
2022/05/07 11:18:52;;;;;;;;;13.00;9.50;;;;;22.09;41.87;101770.16;5034284;28;45435;-53
2022/05/07 11:21:21;;;;;;;;;16.25;11.75;;;;;21.98;41.88;101771.66;5038782;28;45479;-51
2022/05/07 11:23:57;;;;;;;;;13.75;10.75;;;;;21.88;41.71;101781.13;5039213;28;45353;-50
2022/05/07 11:26:22;;;;;;;;;14.50;9.50;;;;;21.78;41.87;101766.63;5038197;28;45554;-49
2022/05/07 11:28:48;;;;;;;;;11.00;9.25;;;;;21.70;42.60;101768.88;5039171;28;46132;-53
2022/05/07 11:31:30;;;;;;;;;14.25;12.50;;;;;21.64;42.58;101771.88;5038778;28;45324;-50